Edwardsville, Alabama
Current Conditions -  °F | °C
As of 9:53 AM on Friday 28 Nov 2014 (Local Time) from KANB Reporting Station
Clear Clear  
Wind Chill:   Ceiling: Unl
Heat Index:   Visibility: 10mi
Dew Point: -6°   Wind: 3mph
Humidity: 51%   Direction: NA
Pressure: 30.46"   Gusts: NA
Location:  33.71°N, 85.51°W
Report Text: KANB 281553Z AUTO VRB03KT 10SM CLR 03/M06 A3046 RMK AO2 SLP324 T00331061
Loading
Personal Weather Stations






























Interactive Weather Map New forecast layout! Learn more

10-Day Weather Forecast

Advertisements
Track Severe Weather on mobile